sensor_id;sensor_type;location;lat;lon;timestamp;pressure;altitude;pressure_sealevel;temperature;humidity
54144;BME280;40050;47.324;18.792;2023-02-04T00:01:41;1000.98;;;5.92;72.79
54144;BME280;40050;47.324;18.792;2023-02-04T00:03:43;1000.98;;;5.93;72.85
54144;BME280;40050;47.324;18.792;2023-02-04T00:05:46;1000.95;;;5.96;72.81
54144;BME280;40050;47.324;18.792;2023-02-04T00:07:48;1000.98;;;6.03;72.80
54144;BME280;40050;47.324;18.792;2023-02-04T00:09:50;1000.94;;;6.05;72.81
54144;BME280;40050;47.324;18.792;2023-02-04T00:11:53;1000.93;;;6.09;72.75
54144;BME280;40050;47.324;18.792;2023-02-04T00:13:55;1000.97;;;6.08;72.62
54144;BME280;40050;47.324;18.792;2023-02-04T00:15:58;1000.78;;;6.04;72.63
54144;BME280;40050;47.324;18.792;2023-02-04T00:18:00;1000.96;;;6.10;72.71
54144;BME280;40050;47.324;18.792;2023-02-04T00:20:03;1000.92;;;6.13;72.81
54144;BME280;40050;47.324;18.792;2023-02-04T00:22:06;1000.96;;;6.10;73.07
54144;BME280;40050;47.324;18.792;2023-02-04T00:24:08;1001.01;;;6.09;73.11
54144;BME280;40050;47.324;18.792;2023-02-04T00:26:11;1000.98;;;6.08;73.24
54144;BME280;40050;47.324;18.792;2023-02-04T00:28:31;1000.99;;;6.09;73.40
54144;BME280;40050;47.324;18.792;2023-02-04T00:30:34;1001.01;;;6.12;73.43
54144;BME280;40050;47.324;18.792;2023-02-04T00:32:36;1001.03;;;6.13;73.61
54144;BME280;40050;47.324;18.792;2023-02-04T00:37:47;1000.96;;;6.16;73.60
54144;BME280;40050;47.324;18.792;2023-02-04T00:39:49;1000.84;;;6.13;73.58
54144;BME280;40050;47.324;18.792;2023-02-04T00:41:52;1000.87;;;6.20;73.64
54144;BME280;40050;47.324;18.792;2023-02-04T00:43:54;1000.89;;;6.19;73.71
54144;BME280;40050;47.324;18.792;2023-02-04T00:45:56;1000.85;;;6.21;73.69
54144;BME280;40050;47.324;18.792;2023-02-04T00:47:59;1000.87;;;6.19;73.72
54144;BME280;40050;47.324;18.792;2023-02-04T00:50:01;1000.82;;;6.20;73.73
54144;BME280;40050;47.324;18.792;2023-02-04T00:52:04;1000.77;;;6.20;73.54
54144;BME280;40050;47.324;18.792;2023-02-04T00:54:06;1000.78;;;6.20;73.64
54144;BME280;40050;47.324;18.792;2023-02-04T00:56:09;1000.73;;;6.16;73.83
54144;BME280;40050;47.324;18.792;2023-02-04T00:58:12;1000.75;;;6.16;73.67
54144;BME280;40050;47.324;18.792;2023-02-04T01:00:15;1000.65;;;6.14;73.69
54144;BME280;40050;47.324;18.792;2023-02-04T01:02:17;1000.62;;;6.15;73.69
54144;BME280;40050;47.324;18.792;2023-02-04T01:04:20;1000.68;;;6.16;73.72
54144;BME280;40050;47.324;18.792;2023-02-04T01:06:22;1000.59;;;6.12;73.63
54144;BME280;40050;47.324;18.792;2023-02-04T01:08:25;1000.65;;;6.15;73.70
54144;BME280;40050;47.324;18.792;2023-02-04T01:10:27;1000.65;;;6.18;73.66
54144;BME280;40050;47.324;18.792;2023-02-04T01:12:30;1000.65;;;6.20;73.63
54144;BME280;40050;47.324;18.792;2023-02-04T01:14:32;1000.56;;;6.16;73.65
54144;BME280;40050;47.324;18.792;2023-02-04T01:16:35;1000.64;;;6.19;73.80
54144;BME280;40050;47.324;18.792;2023-02-04T01:18:37;1000.64;;;6.21;73.86
54144;BME280;40050;47.324;18.792;2023-02-04T01:20:40;1000.64;;;6.21;73.85
54144;BME280;40050;47.324;18.792;2023-02-04T01:22:42;1000.65;;;6.19;73.81
54144;BME280;40050;47.324;18.792;2023-02-04T01:24:45;1000.65;;;6.23;73.73
54144;BME280;40050;47.324;18.792;2023-02-04T01:26:47;1000.73;;;6.29;73.53
54144;BME280;40050;47.324;18.792;2023-02-04T01:28:50;1000.72;;;6.30;73.57
54144;BME280;40050;47.324;18.792;2023-02-04T01:30:53;1000.76;;;6.35;73.39
54144;BME280;40050;47.324;18.792;2023-02-04T01:32:55;1000.77;;;6.35;73.39
54144;BME280;40050;47.324;18.792;2023-02-04T01:34:57;1000.73;;;6.41;73.06
54144;BME280;40050;47.324;18.792;2023-02-04T01:37:00;1000.78;;;6.43;72.84
54144;BME280;40050;47.324;18.792;2023-02-04T01:39:02;1000.79;;;6.46;72.68
54144;BME280;40050;47.324;18.792;2023-02-04T01:41:05;1000.75;;;6.46;72.61
54144;BME280;40050;47.324;18.792;2023-02-04T01:43:07;1000.76;;;6.44;72.62
54144;BME280;40050;47.324;18.792;2023-02-04T01:45:10;1000.81;;;6.52;72.41
54144;BME280;40050;47.324;18.792;2023-02-04T01:47:13;1000.81;;;6.50;71.77
54144;BME280;40050;47.324;18.792;2023-02-04T01:49:15;1000.78;;;6.50;72.11
54144;BME280;40050;47.324;18.792;2023-02-04T01:51:20;1000.79;;;6.55;71.84
54144;BME280;40050;47.324;18.792;2023-02-04T01:53:24;1000.83;;;6.60;71.89
54144;BME280;40050;47.324;18.792;2023-02-04T01:55:28;1000.84;;;6.57;71.86
54144;BME280;40050;47.324;18.792;2023-02-04T01:57:31;1000.83;;;6.59;71.86
54144;BME280;40050;47.324;18.792;2023-02-04T01:59:34;1000.86;;;6.62;71.90
54144;BME280;40050;47.324;18.792;2023-02-04T02:01:44;1000.82;;;6.58;71.95
54144;BME280;40050;47.324;18.792;2023-02-04T02:03:46;1000.86;;;6.68;71.55
54144;BME280;40050;47.324;18.792;2023-02-04T02:05:49;1000.86;;;6.65;71.33
54144;BME280;40050;47.324;18.792;2023-02-04T02:07:54;1000.85;;;6.66;71.54
54144;BME280;40050;47.324;18.792;2023-02-04T02:09:57;1000.75;;;6.58;71.79
54144;BME280;40050;47.324;18.792;2023-02-04T02:12:00;1000.86;;;6.65;71.72
54144;BME280;40050;47.324;18.792;2023-02-04T02:14:03;1000.83;;;6.66;71.68
54144;BME280;40050;47.324;18.792;2023-02-04T02:16:06;1000.75;;;6.66;71.71
54144;BME280;40050;47.324;18.792;2023-02-04T02:18:08;1000.74;;;6.68;71.54
54144;BME280;40050;47.324;18.792;2023-02-04T02:20:13;1000.69;;;6.61;71.50
54144;BME280;40050;47.324;18.792;2023-02-04T02:22:19;1000.69;;;6.62;71.65
54144;BME280;40050;47.324;18.792;2023-02-04T02:26:36;1000.65;;;6.65;71.52
54144;BME280;40050;47.324;18.792;2023-02-04T02:28:38;1000.60;;;6.65;71.29
54144;BME280;40050;47.324;18.792;2023-02-04T02:30:41;1000.58;;;6.61;70.86
54144;BME280;40050;47.324;18.792;2023-02-04T02:32:44;1000.52;;;6.60;71.16
54144;BME280;40050;47.324;18.792;2023-02-04T02:34:47;1000.52;;;6.61;70.08
54144;BME280;40050;47.324;18.792;2023-02-04T02:36:49;1000.41;;;6.54;70.63
54144;BME280;40050;47.324;18.792;2023-02-04T02:38:52;1000.52;;;6.62;70.62
54144;BME280;40050;47.324;18.792;2023-02-04T02:40:54;1000.58;;;6.59;70.12
54144;BME280;40050;47.324;18.792;2023-02-04T02:42:57;1000.50;;;6.61;70.30
54144;BME280;40050;47.324;18.792;2023-02-04T02:44:59;1000.46;;;6.60;69.88
54144;BME280;40050;47.324;18.792;2023-02-04T02:47:04;1000.55;;;6.63;70.03
54144;BME280;40050;47.324;18.792;2023-02-04T02:49:08;1000.51;;;6.63;69.67
54144;BME280;40050;47.324;18.792;2023-02-04T02:51:14;1000.50;;;6.67;69.82
54144;BME280;40050;47.324;18.792;2023-02-04T02:53:17;1000.46;;;6.66;69.76
54144;BME280;40050;47.324;18.792;2023-02-04T02:55:21;1000.45;;;6.62;69.32
54144;BME280;40050;47.324;18.792;2023-02-04T02:57:24;1000.51;;;6.61;69.38
54144;BME280;40050;47.324;18.792;2023-02-04T02:59:27;1000.41;;;6.63;69.31
54144;BME280;40050;47.324;18.792;2023-02-04T03:01:29;1000.40;;;6.65;69.33
54144;BME280;40050;47.324;18.792;2023-02-04T03:03:32;1000.32;;;6.60;69.41
54144;BME280;40050;47.324;18.792;2023-02-04T03:05:38;1000.43;;;6.61;69.48
54144;BME280;40050;47.324;18.792;2023-02-04T03:07:42;1000.34;;;6.66;69.20
54144;BME280;40050;47.324;18.792;2023-02-04T03:09:45;1000.32;;;6.63;69.28
54144;BME280;40050;47.324;18.792;2023-02-04T03:11:47;1000.38;;;6.66;69.58
54144;BME280;40050;47.324;18.792;2023-02-04T03:13:50;1000.35;;;6.70;69.43
54144;BME280;40050;47.324;18.792;2023-02-04T03:15:53;1000.34;;;6.65;69.26
54144;BME280;40050;47.324;18.792;2023-02-04T03:17:56;1000.33;;;6.65;69.00
54144;BME280;40050;47.324;18.792;2023-02-04T03:19:59;1000.34;;;6.68;69.21
54144;BME280;40050;47.324;18.792;2023-02-04T03:22:02;1000.38;;;6.66;69.26
54144;BME280;40050;47.324;18.792;2023-02-04T03:24:05;1000.35;;;6.67;69.21
54144;BME280;40050;47.324;18.792;2023-02-04T03:26:08;1000.31;;;6.71;68.94
54144;BME280;40050;47.324;18.792;2023-02-04T03:28:10;1000.31;;;6.72;68.93
54144;BME280;40050;47.324;18.792;2023-02-04T03:30:13;1000.24;;;6.72;69.24
54144;BME280;40050;47.324;18.792;2023-02-04T03:32:15;1000.17;;;6.74;69.26
54144;BME280;40050;47.324;18.792;2023-02-04T03:34:18;1000.17;;;6.73;69.15
54144;BME280;40050;47.324;18.792;2023-02-04T03:36:21;1000.17;;;6.74;69.51
54144;BME280;40050;47.324;18.792;2023-02-04T03:38:23;1000.10;;;6.69;69.49
54144;BME280;40050;47.324;18.792;2023-02-04T03:40:26;1000.07;;;6.74;69.53
54144;BME280;40050;47.324;18.792;2023-02-04T03:42:28;999.97;;;6.68;69.41
54144;BME280;40050;47.324;18.792;2023-02-04T03:44:31;1000.10;;;6.72;69.26
54144;BME280;40050;47.324;18.792;2023-02-04T03:46:34;999.99;;;6.74;69.56
54144;BME280;40050;47.324;18.792;2023-02-04T03:48:36;1000.03;;;6.72;69.74
54144;BME280;40050;47.324;18.792;2023-02-04T03:50:47;999.95;;;6.69;69.88
54144;BME280;40050;47.324;18.792;2023-02-04T03:52:50;999.78;;;6.68;69.64
54144;BME280;40050;47.324;18.792;2023-02-04T03:54:52;999.85;;;6.71;69.66
54144;BME280;40050;47.324;18.792;2023-02-04T03:56:55;999.71;;;6.71;69.36
54144;BME280;40050;47.324;18.792;2023-02-04T03:58:57;999.62;;;6.73;69.56
54144;BME280;40050;47.324;18.792;2023-02-04T04:01:02;999.66;;;6.70;69.75
54144;BME280;40050;47.324;18.792;2023-02-04T04:03:05;999.61;;;6.71;69.67
54144;BME280;40050;47.324;18.792;2023-02-04T04:05:07;999.74;;;6.70;70.00
54144;BME280;40050;47.324;18.792;2023-02-04T04:07:11;999.74;;;6.74;69.59
54144;BME280;40050;47.324;18.792;2023-02-04T04:09:13;999.75;;;6.71;70.17
54144;BME280;40050;47.324;18.792;2023-02-04T04:11:16;999.73;;;6.70;70.39
54144;BME280;40050;47.324;18.792;2023-02-04T04:13:18;999.74;;;6.71;70.42
54144;BME280;40050;47.324;18.792;2023-02-04T04:15:21;999.75;;;6.74;70.40
54144;BME280;40050;47.324;18.792;2023-02-04T04:17:23;999.69;;;6.75;70.09
54144;BME280;40050;47.324;18.792;2023-02-04T04:19:26;999.65;;;6.73;70.36
54144;BME280;40050;47.324;18.792;2023-02-04T04:21:28;999.63;;;6.71;70.07
54144;BME280;40050;47.324;18.792;2023-02-04T04:23:31;999.42;;;6.59;70.21
54144;BME280;40050;47.324;18.792;2023-02-04T04:25:34;999.61;;;6.72;70.00
54144;BME280;40050;47.324;18.792;2023-02-04T04:27:36;999.51;;;6.75;69.74
54144;BME280;40050;47.324;18.792;2023-02-04T04:29:38;999.45;;;6.74;69.73
54144;BME280;40050;47.324;18.792;2023-02-04T04:31:41;999.47;;;6.75;69.28
54144;BME280;40050;47.324;18.792;2023-02-04T04:33:43;999.39;;;6.75;68.91
54144;BME280;40050;47.324;18.792;2023-02-04T04:35:46;999.39;;;6.78;68.72
54144;BME280;40050;47.324;18.792;2023-02-04T04:37:48;999.41;;;6.78;68.28
54144;BME280;40050;47.324;18.792;2023-02-04T04:39:51;999.43;;;6.83;68.30
54144;BME280;40050;47.324;18.792;2023-02-04T04:41:53;999.48;;;6.81;67.80
54144;BME280;40050;47.324;18.792;2023-02-04T04:43:56;999.45;;;6.81;68.15
54144;BME280;40050;47.324;18.792;2023-02-04T04:45:58;999.41;;;6.82;67.72
54144;BME280;40050;47.324;18.792;2023-02-04T04:48:01;999.48;;;6.85;67.13
54144;BME280;40050;47.324;18.792;2023-02-04T04:50:03;999.46;;;6.84;67.58
54144;BME280;40050;47.324;18.792;2023-02-04T04:52:06;999.45;;;6.85;67.41
54144;BME280;40050;47.324;18.792;2023-02-04T04:54:08;999.45;;;6.86;67.31
54144;BME280;40050;47.324;18.792;2023-02-04T04:56:11;999.45;;;6.82;67.08
54144;BME280;40050;47.324;18.792;2023-02-04T04:58:13;999.44;;;6.83;67.16
54144;BME280;40050;47.324;18.792;2023-02-04T05:00:17;999.44;;;6.81;67.70
54144;BME280;40050;47.324;18.792;2023-02-04T05:02:20;999.51;;;6.85;67.42
54144;BME280;40050;47.324;18.792;2023-02-04T05:04:22;999.37;;;6.82;67.19
54144;BME280;40050;47.324;18.792;2023-02-04T05:06:25;999.35;;;6.81;67.10
54144;BME280;40050;47.324;18.792;2023-02-04T05:08:28;999.07;;;6.61;67.17
54144;BME280;40050;47.324;18.792;2023-02-04T05:10:31;999.17;;;6.75;67.35
54144;BME280;40050;47.324;18.792;2023-02-04T05:12:33;999.23;;;6.82;66.88
54144;BME280;40050;47.324;18.792;2023-02-04T05:14:36;999.26;;;6.77;66.91
54144;BME280;40050;47.324;18.792;2023-02-04T05:16:38;999.27;;;6.83;66.67
54144;BME280;40050;47.324;18.792;2023-02-04T05:18:41;999.21;;;6.80;66.60
54144;BME280;40050;47.324;18.792;2023-02-04T05:20:43;999.21;;;6.78;66.66
54144;BME280;40050;47.324;18.792;2023-02-04T05:22:46;999.24;;;6.76;66.88
54144;BME280;40050;47.324;18.792;2023-02-04T05:24:49;999.20;;;6.77;66.54
54144;BME280;40050;47.324;18.792;2023-02-04T05:26:51;999.27;;;6.80;66.54
54144;BME280;40050;47.324;18.792;2023-02-04T05:28:54;999.19;;;6.80;66.03
54144;BME280;40050;47.324;18.792;2023-02-04T05:30:56;999.23;;;6.79;65.87
54144;BME280;40050;47.324;18.792;2023-02-04T05:32:59;999.13;;;6.77;66.08
54144;BME280;40050;47.324;18.792;2023-02-04T05:35:01;999.41;;;6.78;65.98
54144;BME280;40050;47.324;18.792;2023-02-04T05:37:04;999.36;;;6.77;66.00
54144;BME280;40050;47.324;18.792;2023-02-04T05:39:06;999.45;;;6.77;66.32
54144;BME280;40050;47.324;18.792;2023-02-04T05:41:09;999.45;;;6.83;66.14
54144;BME280;40050;47.324;18.792;2023-02-04T05:43:12;999.61;;;6.76;66.39
54144;BME280;40050;47.324;18.792;2023-02-04T05:45:15;999.59;;;6.70;66.78
54144;BME280;40050;47.324;18.792;2023-02-04T05:47:18;999.80;;;6.73;67.29
54144;BME280;40050;47.324;18.792;2023-02-04T05:49:23;999.90;;;6.70;67.99
54144;BME280;40050;47.324;18.792;2023-02-04T05:51:25;1000.06;;;6.65;68.68
54144;BME280;40050;47.324;18.792;2023-02-04T05:56:10;1000.16;;;6.48;68.69
54144;BME280;40050;47.324;18.792;2023-02-04T05:58:12;1000.14;;;6.43;68.69
54144;BME280;40050;47.324;18.792;2023-02-04T06:00:15;1000.30;;;6.43;68.30
54144;BME280;40050;47.324;18.792;2023-02-04T06:02:17;1000.31;;;6.30;67.61
54144;BME280;40050;47.324;18.792;2023-02-04T06:04:20;1000.45;;;6.30;67.71
54144;BME280;40050;47.324;18.792;2023-02-04T06:06:22;1000.51;;;6.28;67.45
54144;BME280;40050;47.324;18.792;2023-02-04T06:08:25;1000.57;;;6.22;66.98
54144;BME280;40050;47.324;18.792;2023-02-04T06:10:27;1000.70;;;6.12;66.67
54144;BME280;40050;47.324;18.792;2023-02-04T06:12:29;1000.80;;;6.13;66.92
54144;BME280;40050;47.324;18.792;2023-02-04T06:14:32;1000.77;;;6.09;65.68
54144;BME280;40050;47.324;18.792;2023-02-04T06:16:38;1000.70;;;5.99;65.47
54144;BME280;40050;47.324;18.792;2023-02-04T06:18:40;1000.69;;;5.93;65.99
54144;BME280;40050;47.324;18.792;2023-02-04T06:20:43;1000.86;;;5.95;65.90
54144;BME280;40050;47.324;18.792;2023-02-04T06:22:45;1000.71;;;5.94;65.51
54144;BME280;40050;47.324;18.792;2023-02-04T06:24:50;1000.75;;;5.94;64.77
54144;BME280;40050;47.324;18.792;2023-02-04T06:26:53;1000.84;;;5.90;64.85
54144;BME280;40050;47.324;18.792;2023-02-04T06:28:55;1000.83;;;5.85;64.41
54144;BME280;40050;47.324;18.792;2023-02-04T06:31:00;1000.70;;;5.84;64.82
54144;BME280;40050;47.324;18.792;2023-02-04T06:33:03;1000.85;;;5.84;65.12
54144;BME280;40050;47.324;18.792;2023-02-04T06:35:07;1000.75;;;5.88;64.96
54144;BME280;40050;47.324;18.792;2023-02-04T06:37:14;1000.71;;;5.82;65.03
54144;BME280;40050;47.324;18.792;2023-02-04T06:39:19;1000.75;;;5.85;64.89
54144;BME280;40050;47.324;18.792;2023-02-04T06:41:22;1000.71;;;5.84;65.31
54144;BME280;40050;47.324;18.792;2023-02-04T06:43:25;1000.63;;;5.83;65.26
54144;BME280;40050;47.324;18.792;2023-02-04T06:45:28;1000.65;;;5.78;65.06
54144;BME280;40050;47.324;18.792;2023-02-04T06:47:30;1000.55;;;5.81;65.01
54144;BME280;40050;47.324;18.792;2023-02-04T06:49:33;1000.39;;;5.71;64.72
54144;BME280;40050;47.324;18.792;2023-02-04T06:51:36;1000.57;;;5.77;64.75
54144;BME280;40050;47.324;18.792;2023-02-04T06:53:38;1000.52;;;5.75;64.88
54144;BME280;40050;47.324;18.792;2023-02-04T06:55:41;1000.73;;;5.75;64.23
54144;BME280;40050;47.324;18.792;2023-02-04T06:57:46;1000.59;;;5.74;64.32
54144;BME280;40050;47.324;18.792;2023-02-04T06:59:49;1000.53;;;5.71;62.90
54144;BME280;40050;47.324;18.792;2023-02-04T07:01:52;1000.48;;;5.71;62.88
54144;BME280;40050;47.324;18.792;2023-02-04T07:03:54;1000.59;;;5.64;62.69
54144;BME280;40050;47.324;18.792;2023-02-04T07:05:57;1000.60;;;5.65;63.23
54144;BME280;40050;47.324;18.792;2023-02-04T07:08:00;1000.75;;;5.65;63.26
54144;BME280;40050;47.324;18.792;2023-02-04T07:10:03;1000.79;;;5.60;62.77
54144;BME280;40050;47.324;18.792;2023-02-04T07:12:06;1000.75;;;5.55;61.43
54144;BME280;40050;47.324;18.792;2023-02-04T07:14:21;1000.98;;;5.51;61.99
54144;BME280;40050;47.324;18.792;2023-02-04T07:16:29;1000.85;;;5.49;62.11
54144;BME280;40050;47.324;18.792;2023-02-04T07:18:39;1001.09;;;5.48;61.27
54144;BME280;40050;47.324;18.792;2023-02-04T07:20:42;1001.16;;;5.40;61.45
54144;BME280;40050;47.324;18.792;2023-02-04T07:22:47;1001.12;;;5.39;61.82
54144;BME280;40050;47.324;18.792;2023-02-04T07:27:31;1001.40;;;5.24;61.75
54144;BME280;40050;47.324;18.792;2023-02-04T07:29:41;1001.41;;;5.04;61.55
54144;BME280;40050;47.324;18.792;2023-02-04T07:31:45;1001.17;;;4.97;61.63
54144;BME280;40050;47.324;18.792;2023-02-04T07:34:05;1001.43;;;5.03;61.90
54144;BME280;40050;47.324;18.792;2023-02-04T07:36:09;1001.59;;;4.97;62.24
54144;BME280;40050;47.324;18.792;2023-02-04T07:38:12;1001.49;;;4.91;62.34
54144;BME280;40050;47.324;18.792;2023-02-04T07:40:15;1001.73;;;4.81;62.98
54144;BME280;40050;47.324;18.792;2023-02-04T07:46:30;1001.89;;;4.76;62.85
54144;BME280;40050;47.324;18.792;2023-02-04T07:48:33;1001.85;;;4.70;62.84
54144;BME280;40050;47.324;18.792;2023-02-04T07:50:36;1002.05;;;4.68;62.64
54144;BME280;40050;47.324;18.792;2023-02-04T07:52:39;1002.22;;;4.69;63.59
54144;BME280;40050;47.324;18.792;2023-02-04T07:54:41;1002.20;;;4.72;62.40
54144;BME280;40050;47.324;18.792;2023-02-04T07:56:43;1002.17;;;4.69;62.54
54144;BME280;40050;47.324;18.792;2023-02-04T07:58:46;1002.27;;;4.69;62.18
54144;BME280;40050;47.324;18.792;2023-02-04T08:00:53;1002.31;;;4.64;62.74
54144;BME280;40050;47.324;18.792;2023-02-04T08:03:00;1002.45;;;4.60;62.29
54144;BME280;40050;47.324;18.792;2023-02-04T08:05:02;1002.50;;;4.58;62.22
54144;BME280;40050;47.324;18.792;2023-02-04T08:07:05;1002.45;;;4.50;63.10
54144;BME280;40050;47.324;18.792;2023-02-04T08:09:09;1002.48;;;4.54;62.83
54144;BME280;40050;47.324;18.792;2023-02-04T08:11:11;1002.56;;;4.50;62.91
54144;BME280;40050;47.324;18.792;2023-02-04T08:13:14;1002.52;;;4.47;62.77
54144;BME280;40050;47.324;18.792;2023-02-04T08:15:17;1002.74;;;4.44;63.12
54144;BME280;40050;47.324;18.792;2023-02-04T08:17:19;1002.65;;;4.40;63.09
54144;BME280;40050;47.324;18.792;2023-02-04T08:19:22;1002.65;;;4.40;63.33
54144;BME280;40050;47.324;18.792;2023-02-04T08:21:31;1002.74;;;4.38;63.46
54144;BME280;40050;47.324;18.792;2023-02-04T08:23:33;1002.82;;;4.31;62.24
54144;BME280;40050;47.324;18.792;2023-02-04T08:25:36;1003.00;;;4.34;62.71
54144;BME280;40050;47.324;18.792;2023-02-04T08:27:39;1002.94;;;4.25;62.79
54144;BME280;40050;47.324;18.792;2023-02-04T08:29:41;1002.70;;;4.24;63.06
54144;BME280;40050;47.324;18.792;2023-02-04T08:31:44;1003.00;;;4.22;63.09
54144;BME280;40050;47.324;18.792;2023-02-04T08:33:59;1003.12;;;4.18;62.96
54144;BME280;40050;47.324;18.792;2023-02-04T08:36:01;1003.18;;;4.16;62.70
54144;BME280;40050;47.324;18.792;2023-02-04T08:38:04;1002.60;;;3.73;62.45
54144;BME280;40050;47.324;18.792;2023-02-04T08:40:07;1003.27;;;4.13;62.22
54144;BME280;40050;47.324;18.792;2023-02-04T08:42:09;1003.40;;;4.17;62.49
54144;BME280;40050;47.324;18.792;2023-02-04T08:44:12;1003.42;;;4.18;62.55
54144;BME280;40050;47.324;18.792;2023-02-04T08:46:14;1003.29;;;4.18;61.38
54144;BME280;40050;47.324;18.792;2023-02-04T08:48:17;1003.36;;;4.18;62.07
54144;BME280;40050;47.324;18.792;2023-02-04T08:50:19;1003.13;;;4.15;62.05
54144;BME280;40050;47.324;18.792;2023-02-04T08:52:22;1003.09;;;4.18;62.16
54144;BME280;40050;47.324;18.792;2023-02-04T08:54:24;1003.24;;;4.15;61.80
54144;BME280;40050;47.324;18.792;2023-02-04T08:56:27;1003.34;;;4.13;61.98
54144;BME280;40050;47.324;18.792;2023-02-04T08:58:29;1003.28;;;4.18;61.72
54144;BME280;40050;47.324;18.792;2023-02-04T09:00:32;1003.42;;;4.14;61.68
54144;BME280;40050;47.324;18.792;2023-02-04T09:05:03;1003.45;;;4.26;61.76
54144;BME280;40050;47.324;18.792;2023-02-04T09:07:06;1003.30;;;4.31;61.72
54144;BME280;40050;47.324;18.792;2023-02-04T09:09:09;1003.25;;;4.39;61.35
54144;BME280;40050;47.324;18.792;2023-02-04T09:11:11;1003.31;;;4.58;60.77
54144;BME280;40050;47.324;18.792;2023-02-04T09:13:14;1003.64;;;4.71;60.85
54144;BME280;40050;47.324;18.792;2023-02-04T09:15:16;1003.55;;;4.86;60.23
54144;BME280;40050;47.324;18.792;2023-02-04T09:17:19;1003.64;;;4.99;59.69
54144;BME280;40050;47.324;18.792;2023-02-04T09:19:22;1003.54;;;5.05;59.82
54144;BME280;40050;47.324;18.792;2023-02-04T09:21:24;1003.51;;;5.24;60.39
54144;BME280;40050;47.324;18.792;2023-02-04T09:23:27;1003.80;;;5.41;59.69
54144;BME280;40050;47.324;18.792;2023-02-04T09:25:29;1003.75;;;5.56;58.41
54144;BME280;40050;47.324;18.792;2023-02-04T09:27:32;1003.82;;;5.62;58.11
54144;BME280;40050;47.324;18.792;2023-02-04T09:29:34;1003.51;;;5.56;56.90
54144;BME280;40050;47.324;18.792;2023-02-04T09:31:37;1003.92;;;5.69;57.05
54144;BME280;40050;47.324;18.792;2023-02-04T09:33:42;1003.98;;;5.76;56.47
54144;BME280;40050;47.324;18.792;2023-02-04T09:35:48;1004.05;;;5.83;56.79
54144;BME280;40050;47.324;18.792;2023-02-04T09:37:53;1004.12;;;5.87;55.34
54144;BME280;40050;47.324;18.792;2023-02-04T09:39:57;1004.15;;;5.96;56.04
54144;BME280;40050;47.324;18.792;2023-02-04T09:42:14;1004.30;;;6.00;54.50
54144;BME280;40050;47.324;18.792;2023-02-04T09:44:18;1004.51;;;5.99;55.40
54144;BME280;40050;47.324;18.792;2023-02-04T09:46:22;1004.71;;;5.90;54.67
54144;BME280;40050;47.324;18.792;2023-02-04T09:48:25;1004.60;;;5.71;53.80
54144;BME280;40050;47.324;18.792;2023-02-04T09:50:30;1005.04;;;5.62;55.41
54144;BME280;40050;47.324;18.792;2023-02-04T09:52:33;1005.13;;;5.52;55.07
54144;BME280;40050;47.324;18.792;2023-02-04T09:54:36;1005.12;;;5.44;55.69
54144;BME280;40050;47.324;18.792;2023-02-04T09:56:38;1005.16;;;5.30;55.29
54144;BME280;40050;47.324;18.792;2023-02-04T10:03:35;1005.55;;;5.06;55.40
54144;BME280;40050;47.324;18.792;2023-02-04T10:09:51;1005.87;;;4.88;56.45
54144;BME280;40050;47.324;18.792;2023-02-04T10:11:56;1005.89;;;4.84;56.51
54144;BME280;40050;47.324;18.792;2023-02-04T10:16:20;1006.30;;;4.83;57.93
54144;BME280;40050;47.324;18.792;2023-02-04T10:18:36;1006.43;;;4.83;57.97
54144;BME280;40050;47.324;18.792;2023-02-04T10:25:55;1006.74;;;4.75;57.22
54144;BME280;40050;47.324;18.792;2023-02-04T10:31:02;1006.78;;;4.74;56.92
54144;BME280;40050;47.324;18.792;2023-02-04T10:33:15;1006.91;;;4.74;57.81
54144;BME280;40050;47.324;18.792;2023-02-04T10:35:18;1006.92;;;4.71;57.15
54144;BME280;40050;47.324;18.792;2023-02-04T10:37:21;1007.01;;;4.70;58.59
54144;BME280;40050;47.324;18.792;2023-02-04T10:39:25;1006.88;;;4.73;58.38
54144;BME280;40050;47.324;18.792;2023-02-04T10:41:30;1007.03;;;4.69;58.21
54144;BME280;40050;47.324;18.792;2023-02-04T10:43:33;1007.06;;;4.67;57.93
54144;BME280;40050;47.324;18.792;2023-02-04T10:45:38;1007.23;;;4.68;57.33
54144;BME280;40050;47.324;18.792;2023-02-04T10:47:48;1007.22;;;4.65;57.53
54144;BME280;40050;47.324;18.792;2023-02-04T10:50:04;1007.27;;;4.61;58.37
54144;BME280;40050;47.324;18.792;2023-02-04T10:52:15;1007.49;;;4.63;57.19
54144;BME280;40050;47.324;18.792;2023-02-04T10:54:19;1007.37;;;4.52;57.17
54144;BME280;40050;47.324;18.792;2023-02-04T10:56:22;1007.54;;;4.62;56.60
54144;BME280;40050;47.324;18.792;2023-02-04T10:58:26;1007.62;;;4.58;57.42
54144;BME280;40050;47.324;18.792;2023-02-04T11:00:29;1007.62;;;4.59;55.99
54144;BME280;40050;47.324;18.792;2023-02-04T11:05:15;1007.96;;;4.63;57.16
54144;BME280;40050;47.324;18.792;2023-02-04T11:07:31;1007.99;;;4.60;56.68
54144;BME280;40050;47.324;18.792;2023-02-04T11:09:35;1008.08;;;4.62;56.87
54144;BME280;40050;47.324;18.792;2023-02-04T11:11:43;1008.12;;;4.63;55.98
54144;BME280;40050;47.324;18.792;2023-02-04T11:20:31;1008.52;;;4.67;55.52
54144;BME280;40050;47.324;18.792;2023-02-04T11:22:44;1008.66;;;4.71;56.48
54144;BME280;40050;47.324;18.792;2023-02-04T11:24:47;1008.73;;;4.76;56.41
54144;BME280;40050;47.324;18.792;2023-02-04T11:26:50;1008.80;;;4.77;56.27
54144;BME280;40050;47.324;18.792;2023-02-04T11:33:41;1008.89;;;5.02;54.97
54144;BME280;40050;47.324;18.792;2023-02-04T11:35:50;1008.96;;;5.10;55.25
54144;BME280;40050;47.324;18.792;2023-02-04T11:37:58;1009.08;;;5.26;56.88
54144;BME280;40050;47.324;18.792;2023-02-04T11:40:00;1009.11;;;5.37;55.17
54144;BME280;40050;47.324;18.792;2023-02-04T11:42:30;1009.30;;;5.54;55.00
54144;BME280;40050;47.324;18.792;2023-02-04T11:44:36;1009.32;;;5.68;54.56
54144;BME280;40050;47.324;18.792;2023-02-04T11:46:47;1009.43;;;5.81;53.58
54144;BME280;40050;47.324;18.792;2023-02-04T11:48:51;1009.59;;;5.91;54.71
54144;BME280;40050;47.324;18.792;2023-02-04T11:51:00;1009.58;;;5.97;52.86
54144;BME280;40050;47.324;18.792;2023-02-04T11:53:03;1009.54;;;6.00;52.81
54144;BME280;40050;47.324;18.792;2023-02-04T11:55:11;1009.55;;;6.05;52.42
54144;BME280;40050;47.324;18.792;2023-02-04T11:57:17;1009.73;;;6.07;52.29